createdAt,value
2022-12-18T00:01:36.068Z,3.44
2022-12-18T00:04:06.754Z,3.42
2022-12-18T00:06:36.293Z,3.41
2022-12-18T00:09:04.978Z,3.37
2022-12-18T00:11:33.039Z,3.42
2022-12-18T00:14:01.219Z,3.43
2022-12-18T00:16:31.231Z,3.40
2022-12-18T00:18:59.527Z,3.44
2022-12-18T00:21:29.454Z,3.45
2022-12-18T00:23:56.773Z,3.43
2022-12-18T00:26:31.732Z,3.42
2022-12-18T00:29:07.944Z,3.39
2022-12-18T00:31:35.889Z,3.36
2022-12-18T00:34:04.615Z,3.35
2022-12-18T00:36:35.052Z,3.32
2022-12-18T00:39:05.947Z,3.31
2022-12-18T00:41:52.421Z,3.29
2022-12-18T00:44:20.652Z,3.31
2022-12-18T00:46:49.203Z,3.28
2022-12-18T00:49:20.525Z,3.23
2022-12-18T00:51:48.818Z,3.22
2022-12-18T00:54:18.426Z,3.30
2022-12-18T00:56:49.358Z,3.31
2022-12-18T00:59:19.046Z,3.28
2022-12-18T01:01:47.810Z,3.30
2022-12-18T01:04:15.492Z,3.30
2022-12-18T01:06:46.315Z,3.32
2022-12-18T01:09:14.153Z,3.32
2022-12-18T01:11:41.507Z,3.35
2022-12-18T01:14:08.910Z,3.39
2022-12-18T01:16:38.533Z,3.45
2022-12-18T01:19:05.992Z,3.48
2022-12-18T01:21:34.091Z,3.47
2022-12-18T01:24:05.879Z,3.58
2022-12-18T01:26:33.292Z,3.67
2022-12-18T01:29:00.421Z,3.73
2022-12-18T01:31:32.912Z,3.80
2022-12-18T01:34:06.030Z,3.81
2022-12-18T01:36:39.946Z,3.77
2022-12-18T01:39:15.037Z,3.78
2022-12-18T01:42:02.209Z,3.80
2022-12-18T01:45:02.041Z,3.81
2022-12-18T01:47:48.902Z,3.81
2022-12-18T01:50:38.656Z,3.78
2022-12-18T01:53:16.997Z,3.79
2022-12-18T01:55:54.849Z,3.74
2022-12-18T01:58:59.763Z,3.69
2022-12-18T02:01:27.899Z,3.65
2022-12-18T02:03:55.301Z,3.66
2022-12-18T02:06:41.251Z,3.64
2022-12-18T02:09:22.081Z,3.61
2022-12-18T02:12:19.042Z,3.57
2022-12-18T02:15:27.910Z,3.58
2022-12-18T02:18:23.660Z,3.58
2022-12-18T02:21:00.808Z,3.56
2022-12-18T02:24:16.284Z,3.55
2022-12-18T02:27:08.859Z,3.56
2022-12-18T02:29:54.323Z,3.55
2022-12-18T02:32:50.829Z,3.55
2022-12-18T02:35:26.025Z,3.49
2022-12-18T02:37:56.493Z,3.52
2022-12-18T02:40:28.560Z,3.55
2022-12-18T02:42:56.681Z,3.55
2022-12-18T02:45:24.378Z,3.52
2022-12-18T02:47:53.016Z,3.54
2022-12-18T02:50:39.404Z,3.59
2022-12-18T02:53:29.456Z,3.57
2022-12-18T02:56:17.926Z,3.56
2022-12-18T02:59:14.465Z,3.51
2022-12-18T03:02:16.250Z,3.48
2022-12-18T03:05:17.620Z,3.47
2022-12-18T03:08:20.354Z,3.41
2022-12-18T03:11:03.743Z,3.38
2022-12-18T03:13:58.381Z,3.49
2022-12-18T03:16:29.751Z,3.53
2022-12-18T03:19:08.135Z,3.50
2022-12-18T03:21:46.742Z,3.47
2022-12-18T03:24:18.316Z,3.53
2022-12-18T03:26:53.725Z,3.44
2022-12-18T03:29:35.485Z,3.36
2022-12-18T03:32:24.336Z,3.29
2022-12-18T03:34:56.460Z,3.37
2022-12-18T03:37:24.341Z,3.42
2022-12-18T03:39:53.483Z,3.31
2022-12-18T03:42:52.888Z,3.25
2022-12-18T03:45:47.855Z,3.24
2022-12-18T03:48:45.496Z,3.20
2022-12-18T03:51:45.815Z,3.22
2022-12-18T03:54:13.793Z,3.16
2022-12-18T03:57:04.783Z,3.17
2022-12-18T03:59:33.793Z,3.19
2022-12-18T04:02:02.749Z,3.27
2022-12-18T04:04:32.580Z,3.32
2022-12-18T04:07:04.671Z,3.29
2022-12-18T04:09:35.389Z,3.21
2022-12-18T04:12:02.791Z,3.20
2022-12-18T04:14:30.653Z,3.24
2022-12-18T04:16:58.195Z,3.30
2022-12-18T04:19:30.886Z,3.28
2022-12-18T04:21:59.204Z,3.28
2022-12-18T04:24:27.303Z,3.31
2022-12-18T04:27:07.117Z,3.32
2022-12-18T04:29:40.793Z,3.21
2022-12-18T04:32:09.448Z,3.16
2022-12-18T04:34:37.847Z,3.14
2022-12-18T04:37:06.205Z,3.14
2022-12-18T04:39:33.822Z,3.21
2022-12-18T04:42:06.610Z,3.32
2022-12-18T04:44:35.300Z,3.22
2022-12-18T04:47:02.472Z,3.15
2022-12-18T04:49:29.741Z,3.19
2022-12-18T04:51:56.956Z,3.21
2022-12-18T04:54:24.332Z,3.22
2022-12-18T04:56:51.604Z,3.18
2022-12-18T04:59:18.780Z,3.20
2022-12-18T05:01:46.829Z,3.17
2022-12-18T05:04:14.213Z,3.10
2022-12-18T05:06:41.493Z,3.12
2022-12-18T05:09:08.868Z,3.13
2022-12-18T05:11:36.904Z,3.07
2022-12-18T05:14:04.281Z,3.05
2022-12-18T05:16:31.549Z,3.08
2022-12-18T05:18:58.757Z,3.18
2022-12-18T05:21:25.946Z,3.19
2022-12-18T05:23:53.135Z,3.15
2022-12-18T05:26:20.849Z,3.15
2022-12-18T05:28:48.212Z,3.14
2022-12-18T05:31:15.960Z,3.11
2022-12-18T05:33:43.825Z,3.13
2022-12-18T05:36:12.347Z,3.14
2022-12-18T05:38:40.702Z,3.13
2022-12-18T05:41:08.843Z,3.10
2022-12-18T05:43:39.443Z,3.06
2022-12-18T05:46:16.889Z,3.04
2022-12-18T05:48:46.016Z,2.99
2022-12-18T05:51:18.570Z,3.00
2022-12-18T05:53:46.937Z,3.01
2022-12-18T05:56:22.357Z,3.10
2022-12-18T05:58:54.718Z,3.08
2022-12-18T06:01:27.427Z,3.10
2022-12-18T06:03:56.004Z,3.07
2022-12-18T06:06:28.213Z,2.95
2022-12-18T06:08:57.557Z,3.02
2022-12-18T06:11:27.430Z,2.94
2022-12-18T06:13:59.088Z,2.98
2022-12-18T06:16:28.711Z,2.97
2022-12-18T06:19:05.829Z,2.95
2022-12-18T06:21:34.648Z,2.98
2022-12-18T06:24:02.328Z,2.97
2022-12-18T06:26:29.572Z,2.97
2022-12-18T06:28:56.959Z,2.99
2022-12-18T06:31:25.004Z,3.04
2022-12-18T06:33:52.752Z,3.09
2022-12-18T06:36:21.063Z,3.07
2022-12-18T06:38:48.326Z,3.05
2022-12-18T06:41:19.780Z,2.99
2022-12-18T06:43:47.070Z,2.94
2022-12-18T06:46:14.736Z,3.02
2022-12-18T06:48:42.146Z,2.97
2022-12-18T06:51:09.538Z,3.01
2022-12-18T06:53:36.972Z,3.06
2022-12-18T06:56:10.193Z,2.97
2022-12-18T06:58:39.409Z,2.97
2022-12-18T07:01:11.373Z,2.99
2022-12-18T07:03:43.174Z,2.96
2022-12-18T07:06:20.405Z,3.03
2022-12-18T07:08:49.525Z,3.08
2022-12-18T07:11:18.419Z,3.13
2022-12-18T07:13:46.453Z,3.12
2022-12-18T07:16:24.907Z,3.09
2022-12-18T07:18:55.441Z,3.05
2022-12-18T07:21:24.561Z,3.06
2022-12-18T07:23:51.944Z,3.11
2022-12-18T07:26:22.417Z,3.09
2022-12-18T07:28:50.500Z,3.08
2022-12-18T07:31:22.399Z,3.03
2022-12-18T07:33:51.660Z,2.98
2022-12-18T07:36:20.128Z,2.94
2022-12-18T07:38:51.173Z,2.98
2022-12-18T07:41:19.543Z,3.03
2022-12-18T07:43:47.368Z,2.98
2022-12-18T07:46:17.002Z,3.01
2022-12-18T07:48:49.234Z,3.03
2022-12-18T07:51:18.507Z,3.04
2022-12-18T07:53:45.956Z,2.96
2022-12-18T07:56:31.141Z,2.94
2022-12-18T07:58:59.957Z,2.93
2022-12-18T08:01:27.817Z,2.92
2022-12-18T08:03:55.120Z,2.96
2022-12-18T08:06:23.842Z,3.04
2022-12-18T08:08:54.642Z,3.00
2022-12-18T08:11:23.710Z,3.05
2022-12-18T08:13:51.261Z,3.10
2022-12-18T08:16:20.002Z,3.18
2022-12-18T08:18:48.791Z,3.20
2022-12-18T08:21:29.671Z,3.15
2022-12-18T08:24:00.594Z,3.21
2022-12-18T08:26:31.187Z,3.29
2022-12-18T08:29:00.863Z,3.32
2022-12-18T08:31:30.812Z,3.37
2022-12-18T08:33:58.539Z,3.44
2022-12-18T08:36:26.491Z,3.34
2022-12-18T08:38:55.015Z,3.42
2022-12-18T08:41:22.932Z,3.32
2022-12-18T08:44:08.960Z,3.31
2022-12-18T08:46:41.042Z,3.49
2022-12-18T08:49:10.460Z,3.32
2022-12-18T08:51:38.683Z,3.36
2022-12-18T08:54:07.591Z,3.51
2022-12-18T08:56:35.676Z,3.67
2022-12-18T08:59:03.506Z,3.82
2022-12-18T09:01:31.173Z,3.82
2022-12-18T09:03:59.227Z,3.78
2022-12-18T09:06:27.482Z,3.71
2022-12-18T09:08:58.605Z,3.87
2022-12-18T09:11:28.679Z,3.94
2022-12-18T09:13:56.878Z,3.97
2022-12-18T09:16:31.726Z,3.98
2022-12-18T09:19:00.710Z,4.04
2022-12-18T09:21:36.872Z,4.05
2022-12-18T09:24:08.778Z,4.05
2022-12-18T09:26:36.928Z,4.04
2022-12-18T09:29:04.880Z,3.86
2022-12-18T09:31:32.162Z,3.67
2022-12-18T09:33:59.322Z,3.62
2022-12-18T09:36:26.655Z,3.57
2022-12-18T09:38:54.242Z,3.61
2022-12-18T09:41:48.133Z,3.54
2022-12-18T09:44:47.360Z,3.65
2022-12-18T09:47:25.534Z,3.87
2022-12-18T09:50:00.179Z,4.00
2022-12-18T09:52:45.263Z,4.05
2022-12-18T09:55:41.433Z,4.02
2022-12-18T09:58:28.934Z,4.12
2022-12-18T10:00:56.587Z,3.88
2022-12-18T10:03:24.369Z,4.04
2022-12-18T10:06:14.864Z,4.23
2022-12-18T10:09:30.425Z,4.41
2022-12-18T10:12:26.432Z,4.45
2022-12-18T10:15:15.843Z,4.54
2022-12-18T10:18:20.266Z,4.64
2022-12-18T10:20:57.100Z,4.91
2022-12-18T10:24:09.377Z,4.77
2022-12-18T10:26:36.689Z,4.84
2022-12-18T10:29:13.561Z,4.76
2022-12-18T10:31:41.081Z,4.49
2022-12-18T10:34:13.345Z,4.65
2022-12-18T10:36:43.214Z,4.73
2022-12-18T10:39:27.273Z,4.82
2022-12-18T10:42:18.417Z,4.85
2022-12-18T10:44:46.293Z,4.89
2022-12-18T10:47:19.187Z,4.93
2022-12-18T10:49:53.892Z,4.94
2022-12-18T10:52:26.786Z,4.59
2022-12-18T10:55:05.572Z,4.59
2022-12-18T10:57:42.400Z,4.78
2022-12-18T11:00:31.410Z,5.27
2022-12-18T11:02:59.279Z,5.61
2022-12-18T11:05:33.810Z,5.31
2022-12-18T11:08:02.600Z,5.22
2022-12-18T11:10:34.956Z,5.64
2022-12-18T11:13:27.080Z,5.80
2022-12-18T11:15:54.992Z,5.89
2022-12-18T11:18:34.452Z,5.62
2022-12-18T11:21:14.428Z,5.55
2022-12-18T11:23:54.924Z,5.78
2022-12-18T11:26:35.150Z,5.56
2022-12-18T11:29:24.030Z,5.57
2022-12-18T11:31:51.524Z,5.78
2022-12-18T11:34:30.904Z,6.05
2022-12-18T11:37:02.040Z,6.41
2022-12-18T11:39:55.452Z,6.68
2022-12-18T11:43:02.545Z,6.97
2022-12-18T11:45:35.272Z,6.59
2022-12-18T11:48:27.974Z,6.32
2022-12-18T11:51:03.449Z,6.33
2022-12-18T11:53:31.465Z,5.88
2022-12-18T11:56:31.980Z,6.23
2022-12-18T11:59:35.922Z,6.27
2022-12-18T12:02:45.681Z,6.08
2022-12-18T12:05:48.205Z,5.68
2022-12-18T12:08:51.603Z,5.88
2022-12-18T12:12:14.723Z,6.02
2022-12-18T12:15:20.373Z,6.13
2022-12-18T12:18:22.670Z,6.40
2022-12-18T12:21:41.649Z,6.60
2022-12-18T12:25:00.429Z,6.77
2022-12-18T12:28:16.801Z,6.72
2022-12-18T12:31:18.571Z,6.85
2022-12-18T12:34:07.844Z,6.56
2022-12-18T12:37:23.572Z,6.77
2022-12-18T12:39:54.641Z,6.53
2022-12-18T12:43:05.831Z,6.67
2022-12-18T12:46:23.972Z,6.62
2022-12-18T12:49:04.984Z,6.82
2022-12-18T12:51:38.480Z,6.78
2022-12-18T12:54:25.840Z,6.42
2022-12-18T12:57:27.007Z,6.52
2022-12-18T13:00:17.030Z,6.39
2022-12-18T13:03:13.287Z,6.71
2022-12-18T13:06:37.502Z,6.74
2022-12-18T13:09:07.556Z,6.59
2022-12-18T13:12:05.502Z,6.49
2022-12-18T13:14:41.509Z,6.51
2022-12-18T13:17:30.585Z,6.50
2022-12-18T13:20:17.036Z,6.55
2022-12-18T13:22:51.210Z,6.38
2022-12-18T13:25:39.180Z,6.44
2022-12-18T13:28:17.497Z,6.38
2022-12-18T13:30:50.908Z,6.47
2022-12-18T13:33:36.014Z,6.59
2022-12-18T13:36:30.423Z,6.31
2022-12-18T13:39:23.904Z,6.41
2022-12-18T13:42:35.965Z,6.28
2022-12-18T13:45:46.626Z,6.26
2022-12-18T13:48:27.045Z,6.11
2022-12-18T13:51:10.312Z,6.07
2022-12-18T13:54:00.727Z,6.02
2022-12-18T13:56:32.729Z,5.88
2022-12-18T13:59:27.236Z,5.82
2022-12-18T14:02:02.785Z,6.07
2022-12-18T14:04:36.772Z,6.08
2022-12-18T14:07:14.730Z,6.09
2022-12-18T14:09:49.824Z,6.11
2022-12-18T14:12:48.177Z,5.94
2022-12-18T14:15:27.535Z,5.95
2022-12-18T14:18:02.416Z,5.82
2022-12-18T14:20:33.822Z,5.65
2022-12-18T14:23:01.687Z,5.62
2022-12-18T14:25:31.575Z,5.80
2022-12-18T14:28:08.692Z,5.73
2022-12-18T14:30:46.481Z,5.84
2022-12-18T14:33:19.637Z,5.80
2022-12-18T14:36:03.707Z,5.66
2022-12-18T14:38:40.564Z,5.60
2022-12-18T14:41:20.205Z,5.54
2022-12-18T14:43:51.656Z,5.50
2022-12-18T14:46:40.040Z,5.44
2022-12-18T14:49:32.827Z,5.27
2022-12-18T14:52:23.948Z,5.26
2022-12-18T14:54:52.760Z,5.21
2022-12-18T14:57:27.763Z,5.16
2022-12-18T15:00:06.506Z,5.07
2022-12-18T15:02:37.417Z,5.03
2022-12-18T15:05:22.640Z,4.96
2022-12-18T15:07:57.321Z,4.95
2022-12-18T15:10:33.406Z,4.89
2022-12-18T15:13:01.480Z,4.81
2022-12-18T15:15:38.085Z,4.77
2022-12-18T15:18:21.000Z,4.59
2022-12-18T15:21:01.529Z,4.51
2022-12-18T15:23:55.217Z,4.30
2022-12-18T15:26:23.523Z,4.20
2022-12-18T15:29:00.813Z,4.13
2022-12-18T15:31:36.312Z,3.94
2022-12-18T15:34:21.749Z,3.89
2022-12-18T15:36:49.072Z,3.76
2022-12-18T15:39:16.367Z,3.70
2022-12-18T15:42:03.679Z,3.58
2022-12-18T15:44:33.750Z,3.49
2022-12-18T15:47:00.880Z,3.47
2022-12-18T15:49:28.177Z,3.37
2022-12-18T15:52:00.756Z,3.29
2022-12-18T15:55:00.488Z,3.21
2022-12-18T15:57:27.789Z,3.07
2022-12-18T15:59:58.961Z,3.03
2022-12-18T16:02:28.749Z,2.99
2022-12-18T16:04:56.260Z,2.97
2022-12-18T16:07:25.182Z,2.99
2022-12-18T16:09:55.646Z,2.96
2022-12-18T16:12:26.387Z,2.98
2022-12-18T16:14:53.603Z,2.99
2022-12-18T16:17:21.095Z,3.03
2022-12-18T16:19:48.415Z,3.02
2022-12-18T16:22:30.927Z,3.02
2022-12-18T16:24:58.901Z,3.07
2022-12-18T16:27:26.610Z,3.03
2022-12-18T16:29:53.970Z,2.94
2022-12-18T16:32:23.600Z,2.99
2022-12-18T16:34:52.151Z,2.88
2022-12-18T16:37:19.948Z,2.94
2022-12-18T16:39:47.144Z,2.95
2022-12-18T16:42:20.997Z,2.99
2022-12-18T16:44:50.254Z,3.02
2022-12-18T16:47:19.217Z,2.87
2022-12-18T16:49:46.886Z,2.73
2022-12-18T16:52:14.820Z,2.71
2022-12-18T16:54:42.247Z,2.84
2022-12-18T16:57:14.722Z,2.85
2022-12-18T16:59:42.299Z,2.73
2022-12-18T17:02:24.306Z,2.68
2022-12-18T17:04:56.558Z,2.60
2022-12-18T17:07:25.796Z,2.73
2022-12-18T17:09:54.131Z,2.76
2022-12-18T17:12:22.629Z,2.73
2022-12-18T17:14:49.980Z,2.64
2022-12-18T17:17:21.935Z,2.53
2022-12-18T17:19:51.518Z,2.43
2022-12-18T17:22:19.130Z,2.55
2022-12-18T17:24:47.859Z,2.61
2022-12-18T17:27:15.836Z,2.62
2022-12-18T17:29:47.297Z,2.62
2022-12-18T17:32:17.292Z,2.53
2022-12-18T17:34:44.460Z,2.55
2022-12-18T17:37:11.792Z,2.65
2022-12-18T17:39:39.605Z,2.66
2022-12-18T17:42:06.903Z,2.69
2022-12-18T17:44:36.881Z,2.74
2022-12-18T17:47:05.955Z,2.78
2022-12-18T17:49:33.251Z,2.83
2022-12-18T17:52:00.453Z,2.83
2022-12-18T17:54:27.616Z,2.85
2022-12-18T17:56:54.779Z,2.94
2022-12-18T17:59:22.627Z,2.84
2022-12-18T18:01:50.072Z,2.81
2022-12-18T18:04:17.535Z,2.87
2022-12-18T18:06:44.713Z,2.95
2022-12-18T18:09:16.943Z,2.95
2022-12-18T18:12:06.346Z,2.92
2022-12-18T18:14:33.714Z,2.92
2022-12-18T18:17:04.890Z,2.90
2022-12-18T18:19:34.022Z,2.92
2022-12-18T18:22:02.982Z,2.92
2022-12-18T18:24:31.018Z,2.91
2022-12-18T18:27:01.140Z,2.90
2022-12-18T18:29:32.794Z,2.91
2022-12-18T18:32:00.240Z,2.91
2022-12-18T18:34:31.604Z,2.90
2022-12-18T18:37:02.029Z,2.87
2022-12-18T18:39:29.608Z,2.87
2022-12-18T18:41:57.122Z,2.89
2022-12-18T18:44:26.014Z,2.94
2022-12-18T18:46:58.484Z,2.90
2022-12-18T18:49:28.071Z,2.85
2022-12-18T18:51:57.540Z,2.89
2022-12-18T18:54:27.053Z,2.85
2022-12-18T18:59:42.638Z,2.81
2022-12-18T19:02:14.565Z,2.85
2022-12-18T19:04:45.801Z,2.92
2022-12-18T19:07:22.556Z,2.95
2022-12-18T19:10:04.180Z,2.89
2022-12-18T19:13:09.382Z,2.87
2022-12-18T19:15:36.800Z,2.86
2022-12-18T19:18:04.817Z,2.88
2022-12-18T19:20:32.018Z,2.87
2022-12-18T19:22:59.204Z,2.88
2022-12-18T19:25:40.531Z,2.89
2022-12-18T19:28:21.243Z,2.95
2022-12-18T19:30:57.893Z,2.97
2022-12-18T19:33:43.160Z,3.01
2022-12-18T19:36:31.197Z,2.89
2022-12-18T19:39:01.497Z,2.87
2022-12-18T19:41:31.242Z,2.91
2022-12-18T19:44:34.631Z,2.95
2022-12-18T19:47:01.807Z,2.90
2022-12-18T19:49:30.234Z,2.84
2022-12-18T19:51:57.465Z,2.82
2022-12-18T19:54:24.868Z,2.80
2022-12-18T19:56:53.606Z,2.86
2022-12-18T19:59:20.775Z,2.88
2022-12-18T20:01:48.203Z,2.88
2022-12-18T20:04:15.719Z,2.86
2022-12-18T20:06:53.887Z,2.89
2022-12-18T20:09:21.715Z,2.87
2022-12-18T20:11:50.046Z,2.90
2022-12-18T20:14:22.501Z,2.94
2022-12-18T20:16:52.980Z,2.88
2022-12-18T20:19:21.738Z,2.92
2022-12-18T20:21:49.091Z,2.88
2022-12-18T20:24:16.391Z,2.86
2022-12-18T20:26:43.627Z,2.86
2022-12-18T20:29:10.922Z,2.88
2022-12-18T20:31:38.162Z,2.92
2022-12-18T20:34:06.276Z,2.87
2022-12-18T20:36:36.293Z,2.88
2022-12-18T20:39:07.681Z,2.89
2022-12-18T20:41:38.952Z,2.90
2022-12-18T20:44:22.597Z,2.83
2022-12-18T20:47:00.244Z,2.78
2022-12-18T20:49:32.591Z,2.91
2022-12-18T20:52:02.233Z,2.90
2022-12-18T20:54:29.744Z,2.98
2022-12-18T20:56:57.505Z,2.91
2022-12-18T20:59:25.943Z,2.98
2022-12-18T21:01:54.838Z,3.01
2022-12-18T21:04:23.516Z,2.98
2022-12-18T21:07:01.932Z,2.98
2022-12-18T21:09:37.573Z,3.01
2022-12-18T21:12:40.482Z,3.04
2022-12-18T21:15:17.135Z,3.00
2022-12-18T21:17:45.416Z,2.98
2022-12-18T21:20:17.419Z,2.97
2022-12-18T21:22:46.755Z,3.01
2022-12-18T21:25:14.504Z,3.03
2022-12-18T21:27:41.634Z,2.98
2022-12-18T21:30:09.684Z,2.98
2022-12-18T21:32:37.006Z,2.96
2022-12-18T21:35:04.776Z,2.97
2022-12-18T21:37:32.063Z,3.09
2022-12-18T21:39:59.266Z,3.08
2022-12-18T21:42:45.392Z,3.01
2022-12-18T21:45:12.403Z,3.05
2022-12-18T21:47:39.755Z,3.02
2022-12-18T21:50:07.526Z,2.95
2022-12-18T21:52:34.714Z,3.00
2022-12-18T21:55:09.053Z,3.01
2022-12-18T21:57:39.076Z,3.03
2022-12-18T22:00:10.433Z,3.05
2022-12-18T22:02:40.648Z,3.05
2022-12-18T22:05:08.955Z,3.05
2022-12-18T22:07:36.110Z,3.07
2022-12-18T22:10:03.583Z,3.11
2022-12-18T22:12:43.096Z,3.11
2022-12-18T22:15:20.018Z,3.09
2022-12-18T22:17:50.887Z,3.05
2022-12-18T22:20:19.945Z,3.01
2022-12-18T22:22:50.355Z,2.98
2022-12-18T22:25:18.438Z,2.96
2022-12-18T22:28:08.537Z,2.99
2022-12-18T22:30:36.096Z,3.07
2022-12-18T22:33:03.912Z,3.04
2022-12-18T22:35:31.246Z,3.02
2022-12-18T22:38:01.605Z,3.01
2022-12-18T22:40:29.354Z,3.03
2022-12-18T22:42:57.055Z,3.02
2022-12-18T22:45:26.623Z,3.03
2022-12-18T22:47:54.127Z,3.04
2022-12-18T22:50:21.343Z,3.07
2022-12-18T22:52:48.558Z,3.07
2022-12-18T22:55:15.914Z,3.06
2022-12-18T22:57:48.523Z,3.05
2022-12-18T23:00:18.664Z,3.02
2022-12-18T23:02:59.356Z,3.00
2022-12-18T23:05:29.953Z,2.93
2022-12-18T23:07:57.907Z,2.96
2022-12-18T23:10:25.276Z,2.97
2022-12-18T23:12:52.479Z,2.90
2022-12-18T23:15:22.848Z,2.90
2022-12-18T23:17:58.652Z,2.83
2022-12-18T23:20:28.181Z,2.88
2022-12-18T23:22:55.753Z,2.83
2022-12-18T23:25:23.278Z,2.85
2022-12-18T23:27:50.614Z,2.90
2022-12-18T23:30:18.151Z,2.87
2022-12-18T23:32:45.363Z,2.86
2022-12-18T23:35:14.065Z,2.75
2022-12-18T23:38:00.517Z,2.83
2022-12-18T23:40:29.771Z,2.82
2022-12-18T23:42:57.129Z,2.78
2022-12-18T23:45:24.261Z,2.79
2022-12-18T23:47:51.512Z,2.77
2022-12-18T23:50:18.957Z,2.69
2022-12-18T23:52:49.285Z,2.65
2022-12-18T23:55:16.602Z,2.67
2022-12-18T23:57:43.780Z,2.74
